Hovedside
METAR-TAF:

METAR-TAF

Lufthavner :

José Martí internasjonale lufthavn

Havanna, Cuba

breddegrad: 22-59N, lengdegrad: 082-24W, høyde over havet: 59 m

Gjeldene værobservasjon

Denne rapporten ble laget for 59 minutter siden, klokken 14:55 UTC
Vind 12 kt fra Nordøst, skiftende mellom Nord og Øst-nordøst
Temperatur 25°C
Luftfuktighet 61%
Trykk 1019 hPa
Sikt: 9000 m
Spredte skyer i en høyde av 3000 ft

METAR: MUHA 201455Z 04012KT 010V070 9000 SCT030 25/17 Q1019

Tid: 10:54 (15:54 UTC)

Varsel

Denne rapporten ble laget for 4 timer og 54 minutter siden, klokken 11:00 UTC
Varsel gyldig fra 20. klokken 12 UTC til 21. klokken 12 UTC
Vind 9 kt fra Nord-nordøst
Sikt: 9000 m
Spredte skyer i en høyde av 4000 ft

TAF: MUHA 201100Z 2012/2112 03009KT 9000 SCT040

Værobservasjoner og værvarsel for over 4000 flyplasser (METAR- og TAF-rapporter).

Tilgjengelige stasjoner er representert av de røde og gule prikkene på kartet.

Hold musepekeren over prikken for å se navnet på stasjonen.

Klikk så for å se værobservasjoner og -varsler.

For å forandre kartet kan du klikke på den grønne knappen med svart kryss for å zoome inn, på den grønne knappen med strek for å zoome ut, eller på de grønne pilene for å se tilstøtende kart.


METAR-TAF: